createdAt,value
2023-05-24T00:02:14.158Z,4.47
2023-05-24T00:04:42.058Z,3.83
2023-05-24T00:07:09.011Z,4.25
2023-05-24T00:09:35.741Z,4.30
2023-05-24T00:12:02.813Z,4.00
2023-05-24T00:14:29.516Z,4.30
2023-05-24T00:16:56.251Z,3.88
2023-05-24T00:19:23.084Z,3.90
2023-05-24T00:21:50.146Z,4.20
2023-05-24T00:24:17.629Z,3.70
2023-05-24T00:26:45.108Z,4.15
2023-05-24T00:29:11.970Z,3.78
2023-05-24T00:31:39.210Z,3.42
2023-05-24T00:34:06.612Z,4.10
2023-05-24T00:36:34.087Z,3.58
2023-05-24T00:39:00.920Z,3.42
2023-05-24T00:41:27.680Z,3.72
2023-05-24T00:43:54.765Z,3.50
2023-05-24T00:46:27.264Z,3.92
2023-05-24T00:48:54.924Z,3.28
2023-05-24T00:51:22.420Z,3.30
2023-05-24T00:53:49.819Z,3.25
2023-05-24T00:56:17.458Z,3.70
2023-05-24T00:58:45.441Z,3.60
2023-05-24T01:01:13.022Z,3.53
2023-05-24T01:03:40.223Z,3.55
2023-05-24T01:06:08.459Z,3.70
2023-05-24T01:08:50.474Z,3.30
2023-05-24T01:11:52.346Z,2.85
2023-05-24T01:14:44.961Z,2.90
2023-05-24T01:17:33.270Z,3.30
2023-05-24T01:20:08.912Z,3.33
2023-05-24T01:22:43.806Z,3.30
2023-05-24T01:25:37.272Z,3.47
2023-05-24T01:28:04.437Z,3.20
2023-05-24T01:30:31.425Z,3.60
2023-05-24T01:32:58.469Z,3.35
2023-05-24T01:35:25.240Z,3.15
2023-05-24T01:37:51.964Z,3.15
2023-05-24T01:40:18.948Z,3.22
2023-05-24T01:43:14.737Z,3.28
2023-05-24T01:46:02.615Z,3.10
2023-05-24T01:49:00.669Z,3.10
2023-05-24T01:51:38.892Z,3.50
2023-05-24T01:54:06.924Z,3.08
2023-05-24T01:56:35.942Z,3.17
2023-05-24T01:59:04.316Z,3.50
2023-05-24T02:01:32.014Z,3.70
2023-05-24T02:03:59.811Z,2.95
2023-05-24T02:06:26.552Z,3.67
2023-05-24T02:08:53.664Z,2.80
2023-05-24T02:11:21.433Z,3.40
2023-05-24T02:13:48.112Z,3.25
2023-05-24T02:16:14.875Z,3.20
2023-05-24T02:18:44.866Z,3.53
2023-05-24T02:21:12.046Z,3.33
2023-05-24T02:23:38.787Z,2.80
2023-05-24T02:26:05.742Z,3.40
2023-05-24T02:28:32.579Z,2.97
2023-05-24T02:30:59.485Z,3.40
2023-05-24T02:33:26.404Z,3.17
2023-05-24T02:35:53.092Z,3.22
2023-05-24T02:38:19.779Z,3.13
2023-05-24T02:40:46.438Z,3.13
2023-05-24T02:43:13.301Z,3.10
2023-05-24T02:45:40.060Z,3.03
2023-05-24T02:48:06.941Z,3.60
2023-05-24T02:50:34.046Z,3.05
2023-05-24T02:53:00.814Z,2.63
2023-05-24T02:55:29.186Z,3.15
2023-05-24T02:57:56.446Z,3.20
2023-05-24T03:00:24.922Z,3.53
2023-05-24T03:02:53.372Z,3.55
2023-05-24T03:05:20.493Z,3.42
2023-05-24T03:07:47.388Z,3.50
2023-05-24T03:10:16.162Z,3.50
2023-05-24T03:12:43.300Z,3.25
2023-05-24T03:15:10.609Z,3.63
2023-05-24T03:17:37.347Z,3.25
2023-05-24T03:20:05.926Z,3.08
2023-05-24T03:22:32.972Z,3.67
2023-05-24T03:24:59.731Z,3.28
2023-05-24T03:27:26.512Z,3.50
2023-05-24T03:29:54.417Z,3.10
2023-05-24T03:32:24.447Z,3.40
2023-05-24T03:34:51.173Z,2.90
2023-05-24T03:37:17.887Z,3.10
2023-05-24T03:39:45.455Z,3.20
2023-05-24T03:42:44.336Z,3.28
2023-05-24T03:45:12.257Z,4.07
2023-05-24T03:47:38.981Z,3.33
2023-05-24T03:50:06.341Z,3.28
2023-05-24T03:52:33.045Z,3.25
2023-05-24T03:54:59.775Z,3.33
2023-05-24T03:57:26.578Z,3.33
2023-05-24T03:59:53.265Z,2.97
2023-05-24T04:02:20.059Z,3.53
2023-05-24T04:04:46.953Z,3.10
2023-05-24T04:07:15.469Z,3.10
2023-05-24T04:09:43.193Z,3.05
2023-05-24T04:12:09.929Z,3.55
2023-05-24T04:14:36.604Z,3.50
2023-05-24T04:17:05.850Z,3.88
2023-05-24T04:19:32.780Z,3.33
2023-05-24T04:21:59.805Z,3.65
2023-05-24T04:24:26.636Z,2.97
2023-05-24T04:26:53.373Z,4.00
2023-05-24T04:29:20.290Z,3.30
2023-05-24T04:31:49.164Z,3.45
2023-05-24T04:34:16.025Z,3.53
2023-05-24T04:36:42.947Z,3.63
2023-05-24T04:39:11.570Z,3.92
2023-05-24T04:41:38.731Z,3.83
2023-05-24T04:44:05.531Z,3.50
2023-05-24T04:46:32.213Z,4.25
2023-05-24T04:48:59.179Z,3.80
2023-05-24T04:51:26.157Z,3.50
2023-05-24T04:53:52.841Z,3.70
2023-05-24T04:56:19.994Z,3.53
2023-05-24T04:58:47.701Z,3.58
2023-05-24T05:01:14.485Z,3.40
2023-05-24T05:03:41.509Z,3.70
2023-05-24T05:06:08.331Z,3.92
2023-05-24T05:08:35.001Z,3.53
2023-05-24T05:11:01.682Z,3.60
2023-05-24T05:13:28.453Z,3.50
2023-05-24T05:15:55.223Z,3.28
2023-05-24T05:18:21.943Z,3.40
2023-05-24T05:20:49.043Z,3.53
2023-05-24T05:23:15.972Z,3.45
2023-05-24T05:25:42.665Z,3.67
2023-05-24T05:28:09.341Z,3.38
2023-05-24T05:30:36.036Z,4.03
2023-05-24T05:33:05.962Z,3.60
2023-05-24T05:35:33.384Z,4.07
2023-05-24T05:38:00.044Z,3.42
2023-05-24T05:40:26.776Z,3.40
2023-05-24T05:42:53.545Z,3.22
2023-05-24T05:45:20.365Z,3.80
2023-05-24T05:47:47.135Z,3.45
2023-05-24T05:50:13.864Z,3.25
2023-05-24T05:52:41.084Z,3.40
2023-05-24T05:55:08.742Z,3.20
2023-05-24T05:57:35.588Z,4.18
2023-05-24T06:00:02.536Z,3.58
2023-05-24T06:02:38.694Z,3.13
2023-05-24T06:05:05.961Z,2.90
2023-05-24T06:07:32.901Z,3.53
2023-05-24T06:09:59.732Z,3.70
2023-05-24T06:12:26.793Z,3.38
2023-05-24T06:14:54.273Z,3.13
2023-05-24T06:17:24.339Z,3.95
2023-05-24T06:19:53.799Z,3.22
2023-05-24T06:22:21.689Z,3.80
2023-05-24T06:24:49.233Z,3.80
2023-05-24T06:27:16.099Z,3.25
2023-05-24T06:29:42.762Z,3.75
2023-05-24T06:32:09.535Z,3.55
2023-05-24T06:34:36.279Z,3.17
2023-05-24T06:37:03.211Z,3.30
2023-05-24T06:39:29.996Z,3.22
2023-05-24T06:41:56.698Z,2.78
2023-05-24T06:44:31.020Z,3.22
2023-05-24T06:46:57.997Z,3.25
2023-05-24T06:49:24.685Z,3.22
2023-05-24T06:51:54.723Z,3.72
2023-05-24T06:54:21.786Z,3.35
2023-05-24T06:56:48.466Z,3.22
2023-05-24T06:59:15.140Z,3.22
2023-05-24T07:01:43.045Z,3.20
2023-05-24T07:04:10.125Z,2.90
2023-05-24T07:06:37.718Z,2.90
2023-05-24T07:09:04.986Z,3.20
2023-05-24T07:11:32.185Z,3.70
2023-05-24T07:13:58.908Z,2.88
2023-05-24T07:16:25.670Z,3.13
2023-05-24T07:18:52.473Z,2.85
2023-05-24T07:21:19.218Z,3.65
2023-05-24T07:23:46.143Z,3.35
2023-05-24T07:26:12.910Z,3.00
2023-05-24T07:28:40.550Z,2.90
2023-05-24T07:31:09.968Z,3.35
2023-05-24T07:33:37.954Z,4.10
2023-05-24T07:36:06.036Z,3.97
2023-05-24T07:38:34.216Z,3.28
2023-05-24T07:41:02.113Z,3.17
2023-05-24T07:43:28.773Z,3.45
2023-05-24T07:45:55.776Z,3.20
2023-05-24T07:48:23.481Z,3.63
2023-05-24T07:50:52.645Z,3.20
2023-05-24T07:53:19.876Z,3.45
2023-05-24T07:55:46.862Z,2.97
2023-05-24T07:58:13.540Z,3.25
2023-05-24T08:00:41.482Z,3.00
2023-05-24T08:03:08.336Z,3.15
2023-05-24T08:05:35.114Z,3.17
2023-05-24T08:08:01.774Z,3.30
2023-05-24T08:10:28.844Z,2.95
2023-05-24T08:12:56.220Z,3.55
2023-05-24T08:15:23.089Z,3.17
2023-05-24T08:17:49.795Z,3.20
2023-05-24T08:20:17.851Z,3.55
2023-05-24T08:22:44.752Z,3.08
2023-05-24T08:25:14.237Z,3.30
2023-05-24T08:27:41.266Z,3.58
2023-05-24T08:30:08.880Z,3.38
2023-05-24T08:32:36.398Z,4.10
2023-05-24T08:35:17.464Z,3.60
2023-05-24T08:37:46.236Z,3.30
2023-05-24T08:40:13.082Z,3.60
2023-05-24T08:42:41.087Z,3.42
2023-05-24T08:45:15.436Z,3.72
2023-05-24T08:47:42.687Z,3.15
2023-05-24T08:50:10.364Z,3.30
2023-05-24T08:52:37.099Z,3.40
2023-05-24T08:55:07.573Z,3.45
2023-05-24T08:57:39.307Z,3.60
2023-05-24T09:00:09.552Z,3.67
2023-05-24T09:02:38.679Z,3.70
2023-05-24T09:05:09.348Z,3.92
2023-05-24T09:07:37.361Z,3.33
2023-05-24T09:10:06.892Z,3.60
2023-05-24T09:12:38.708Z,3.00
2023-05-24T09:15:07.597Z,3.38
2023-05-24T09:17:39.152Z,3.25
2023-05-24T09:20:08.976Z,3.20
2023-05-24T09:22:40.642Z,3.38
2023-05-24T09:25:10.095Z,3.10
2023-05-24T09:27:37.655Z,3.00
2023-05-24T09:30:09.206Z,3.47
2023-05-24T09:32:36.175Z,3.47
2023-05-24T09:35:02.891Z,3.53
2023-05-24T09:37:32.775Z,3.30
2023-05-24T09:40:00.046Z,3.13
2023-05-24T09:42:28.882Z,3.10
2023-05-24T09:45:08.745Z,3.33
2023-05-24T09:47:37.508Z,3.03
2023-05-24T09:50:06.942Z,2.97
2023-05-24T09:52:37.949Z,3.38
2023-05-24T09:55:18.843Z,3.38
2023-05-24T09:57:51.259Z,3.08
2023-05-24T10:00:23.247Z,3.30
2023-05-24T10:03:07.450Z,3.17
2023-05-24T10:05:35.931Z,3.00
2023-05-24T10:08:05.132Z,3.33
2023-05-24T10:10:33.514Z,3.95
2023-05-24T10:13:01.646Z,3.13
2023-05-24T10:15:29.030Z,3.75
2023-05-24T10:17:57.027Z,3.42
2023-05-24T10:20:24.765Z,2.95
2023-05-24T10:23:04.193Z,3.30
2023-05-24T10:25:33.732Z,3.33
2023-05-24T10:28:10.352Z,2.85
2023-05-24T10:30:42.421Z,3.50
2023-05-24T10:33:13.120Z,3.08
2023-05-24T10:35:41.375Z,3.13
2023-05-24T10:38:08.569Z,2.88
2023-05-24T10:40:40.891Z,3.42
2023-05-24T10:43:08.175Z,3.15
2023-05-24T10:45:41.086Z,3.58
2023-05-24T10:48:14.034Z,3.53
2023-05-24T10:50:42.615Z,3.28
2023-05-24T10:53:13.727Z,3.40
2023-05-24T10:55:57.384Z,3.92
2023-05-24T10:58:55.303Z,3.72
2023-05-24T11:01:31.107Z,3.67
2023-05-24T11:04:11.213Z,3.53
2023-05-24T11:06:55.671Z,3.35
2023-05-24T11:09:23.127Z,2.92
2023-05-24T11:11:54.553Z,2.90
2023-05-24T11:14:29.148Z,3.88
2023-05-24T11:16:56.825Z,3.28
2023-05-24T11:19:29.522Z,3.30
2023-05-24T11:22:00.652Z,3.20
2023-05-24T11:24:29.004Z,4.13
2023-05-24T11:26:57.141Z,3.33
2023-05-24T11:29:24.160Z,3.20
2023-05-24T11:31:57.786Z,3.33
2023-05-24T11:34:26.682Z,3.45
2023-05-24T11:36:55.183Z,3.35
2023-05-24T11:39:23.579Z,3.65
2023-05-24T11:41:50.446Z,3.40
2023-05-24T11:44:19.659Z,2.88
2023-05-24T11:46:46.688Z,4.10
2023-05-24T11:49:17.317Z,3.17
2023-05-24T11:51:44.206Z,3.17
2023-05-24T11:54:11.855Z,3.50
2023-05-24T11:56:38.858Z,3.20
2023-05-24T11:59:27.108Z,3.20
2023-05-24T12:02:06.771Z,3.05
2023-05-24T12:04:34.766Z,2.92
2023-05-24T12:07:02.409Z,3.17
2023-05-24T12:09:29.394Z,3.30
2023-05-24T12:11:57.713Z,3.00
2023-05-24T12:14:27.026Z,3.33
2023-05-24T12:16:56.325Z,2.88
2023-05-24T12:19:33.134Z,3.15
2023-05-24T12:22:05.111Z,3.03
2023-05-24T12:24:32.955Z,3.13
2023-05-24T12:27:07.603Z,3.15
2023-05-24T12:29:36.735Z,3.53
2023-05-24T12:32:04.293Z,3.42
2023-05-24T12:34:31.060Z,3.05
2023-05-24T12:36:57.915Z,2.92
2023-05-24T12:39:34.321Z,2.80
2023-05-24T12:42:02.240Z,3.10
2023-05-24T12:44:35.805Z,3.10
2023-05-24T12:47:05.487Z,3.10
2023-05-24T12:49:32.352Z,2.88
2023-05-24T12:51:59.220Z,3.55
2023-05-24T12:54:28.430Z,3.28
2023-05-24T12:56:57.522Z,3.75
2023-05-24T12:59:25.680Z,4.18
2023-05-24T13:01:52.929Z,3.38
2023-05-24T13:04:22.245Z,3.17
2023-05-24T13:06:49.169Z,3.40
2023-05-24T13:09:18.886Z,3.15
2023-05-24T13:11:45.690Z,3.03
2023-05-24T13:14:12.879Z,3.20
2023-05-24T13:16:39.786Z,2.80
2023-05-24T13:19:06.772Z,3.40
2023-05-24T13:21:33.809Z,3.20
2023-05-24T13:24:00.748Z,3.22
2023-05-24T13:26:27.799Z,3.47
2023-05-24T13:29:26.531Z,3.00
2023-05-24T13:31:41.867Z,2.88
2023-05-24T13:34:11.184Z,3.35
2023-05-24T13:36:38.811Z,2.50
2023-05-24T13:41:37.788Z,4.18
2023-05-24T13:44:04.601Z,2.92
2023-05-24T13:46:32.290Z,2.60
2023-05-24T13:48:59.331Z,2.53
2023-05-24T13:51:27.085Z,3.13
2023-05-24T13:53:55.553Z,3.00
2023-05-24T13:56:24.276Z,2.72
2023-05-24T13:58:52.354Z,2.70
2023-05-24T14:01:19.573Z,2.80
2023-05-24T14:03:46.586Z,2.70
2023-05-24T14:06:13.415Z,2.80
2023-05-24T14:08:40.294Z,2.78
2023-05-24T14:11:07.215Z,7.45
2023-05-24T14:16:03.756Z,2.60
2023-05-24T14:18:30.545Z,2.30
2023-05-24T14:20:57.254Z,2.53
2023-05-24T14:23:23.988Z,2.10
2023-05-24T14:25:52.087Z,2.30
2023-05-24T14:28:19.841Z,2.50
2023-05-24T14:30:46.538Z,2.10
2023-05-24T14:33:13.665Z,2.03
2023-05-24T14:35:40.884Z,1.60
2023-05-24T14:38:09.514Z,2.03
2023-05-24T14:40:37.814Z,1.98
2023-05-24T14:43:05.532Z,2.40
2023-05-24T14:45:33.243Z,2.30
2023-05-24T14:48:01.030Z,2.22
2023-05-24T14:50:27.814Z,2.03
2023-05-24T14:52:55.837Z,2.33
2023-05-24T14:55:22.818Z,2.22
2023-05-24T14:57:49.698Z,1.85
2023-05-24T15:00:18.578Z,1.80
2023-05-24T15:02:46.708Z,1.85
2023-05-24T15:05:13.559Z,1.60
2023-05-24T15:07:40.241Z,1.50
2023-05-24T15:10:07.790Z,1.63
2023-05-24T15:12:34.472Z,1.85
2023-05-24T15:15:01.394Z,2.30
2023-05-24T15:17:28.281Z,1.70
2023-05-24T15:19:56.649Z,1.80
2023-05-24T15:22:23.496Z,1.52
2023-05-24T15:24:50.421Z,1.75
2023-05-24T15:27:17.371Z,1.75
2023-05-24T15:29:44.037Z,2.17
2023-05-24T15:32:10.750Z,1.95
2023-05-24T15:34:37.442Z,1.90
2023-05-24T15:37:04.204Z,1.65
2023-05-24T15:39:30.976Z,1.70
2023-05-24T15:41:57.876Z,1.25
2023-05-24T15:44:24.683Z,1.80
2023-05-24T15:46:51.466Z,1.75
2023-05-24T15:49:18.178Z,1.90
2023-05-24T15:54:14.573Z,1.83
2023-05-24T15:56:41.237Z,1.73
2023-05-24T15:59:08.250Z,2.20
2023-05-24T16:01:35.236Z,1.85
2023-05-24T16:04:02.114Z,1.70
2023-05-24T16:06:28.846Z,2.33
2023-05-24T16:08:55.663Z,1.73
2023-05-24T16:11:23.668Z,1.90
2023-05-24T16:13:50.554Z,1.85
2023-05-24T16:16:17.328Z,1.88
2023-05-24T16:18:44.080Z,1.88
2023-05-24T16:21:10.913Z,1.70
2023-05-24T16:23:37.592Z,1.73
2023-05-24T16:26:04.305Z,2.10
2023-05-24T16:28:31.080Z,1.95
2023-05-24T16:30:58.808Z,2.03
2023-05-24T16:33:25.692Z,2.10
2023-05-24T16:35:55.815Z,2.00
2023-05-24T16:38:23.907Z,1.98
2023-05-24T16:40:51.346Z,1.90
2023-05-24T16:43:18.553Z,2.40
2023-05-24T16:45:45.782Z,2.00
2023-05-24T16:48:13.158Z,2.55
2023-05-24T16:50:40.277Z,2.05
2023-05-24T16:53:07.088Z,2.40
2023-05-24T16:55:33.768Z,2.20
2023-05-24T16:58:00.560Z,2.42
2023-05-24T17:00:27.416Z,2.22
2023-05-24T17:02:54.742Z,1.83
2023-05-24T17:05:21.558Z,2.03
2023-05-24T17:07:48.243Z,2.13
2023-05-24T17:10:14.981Z,2.13
2023-05-24T17:12:41.706Z,2.28
2023-05-24T17:15:08.965Z,2.45
2023-05-24T17:17:35.708Z,2.42
2023-05-24T17:20:02.559Z,2.00
2023-05-24T17:22:29.390Z,2.15
2023-05-24T17:24:56.044Z,2.20
2023-05-24T17:27:22.861Z,2.42
2023-05-24T17:29:49.780Z,2.35
2023-05-24T17:32:16.542Z,2.30
2023-05-24T17:34:43.295Z,2.50
2023-05-24T17:37:09.996Z,2.42
2023-05-24T17:39:36.959Z,2.33
2023-05-24T17:42:03.873Z,2.40
2023-05-24T17:44:31.385Z,2.80
2023-05-24T17:46:59.683Z,2.63
2023-05-24T17:49:26.552Z,2.75
2023-05-24T17:51:53.318Z,2.53
2023-05-24T17:54:20.125Z,2.28
2023-05-24T17:56:46.831Z,2.70
2023-05-24T17:59:13.539Z,2.08
2023-05-24T18:01:40.372Z,3.25
2023-05-24T18:04:08.504Z,2.85
2023-05-24T18:06:35.548Z,2.58
2023-05-24T18:09:02.280Z,2.92
2023-05-24T18:11:29.276Z,2.63
2023-05-24T18:13:57.088Z,2.67
2023-05-24T18:16:23.878Z,2.53
2023-05-24T18:18:50.608Z,2.72
2023-05-24T18:21:18.411Z,2.35
2023-05-24T18:23:45.084Z,2.67
2023-05-24T18:26:12.178Z,2.97
2023-05-24T18:28:39.251Z,3.08
2023-05-24T18:31:08.706Z,2.47
2023-05-24T18:33:35.823Z,2.40
2023-05-24T18:36:04.514Z,2.92
2023-05-24T18:38:33.864Z,3.08
2023-05-24T18:41:00.953Z,2.83
2023-05-24T18:43:27.593Z,1.88
2023-05-24T18:45:54.309Z,1.52
2023-05-24T18:48:21.341Z,1.52
2023-05-24T18:50:49.956Z,1.40
2023-05-24T18:53:16.665Z,1.77
2023-05-24T18:55:43.729Z,1.30
2023-05-24T18:58:10.565Z,1.63
2023-05-24T19:00:37.278Z,1.50
2023-05-24T19:03:04.002Z,1.52
2023-05-24T19:05:30.889Z,1.45
2023-05-24T19:07:57.617Z,1.75
2023-05-24T19:10:24.291Z,1.10
2023-05-24T19:12:51.572Z,1.50
2023-05-24T19:15:18.380Z,1.70
2023-05-24T19:17:45.084Z,1.10
2023-05-24T19:20:12.178Z,1.48
2023-05-24T19:22:38.899Z,1.40
2023-05-24T19:25:06.081Z,1.52
2023-05-24T19:27:32.789Z,1.30
2023-05-24T19:30:00.172Z,1.35
2023-05-24T19:32:27.053Z,1.50
2023-05-24T19:34:53.824Z,1.83
2023-05-24T19:37:21.047Z,1.52
2023-05-24T19:39:47.897Z,1.50
2023-05-24T19:42:14.865Z,1.23
2023-05-24T19:44:41.680Z,1.60
2023-05-24T19:47:08.405Z,1.80
2023-05-24T19:49:35.162Z,1.58
2023-05-24T19:52:01.845Z,1.38
2023-05-24T19:54:28.512Z,1.48
2023-05-24T19:56:56.076Z,1.70
2023-05-24T19:59:22.732Z,1.40
2023-05-24T20:01:49.517Z,1.42
2023-05-24T20:04:16.298Z,1.88
2023-05-24T20:06:43.030Z,1.50
2023-05-24T20:09:09.733Z,1.73
2023-05-24T20:11:36.402Z,1.70
2023-05-24T20:14:03.147Z,1.80
2023-05-24T20:16:30.008Z,1.83
2023-05-24T20:18:56.794Z,1.20
2023-05-24T20:21:23.545Z,2.10
2023-05-24T20:23:57.258Z,2.05
2023-05-24T20:26:24.681Z,1.73
2023-05-24T20:28:52.142Z,1.73
2023-05-24T20:31:18.957Z,1.65
2023-05-24T20:33:45.887Z,1.67
2023-05-24T20:36:14.830Z,1.88
2023-05-24T20:38:41.665Z,1.60
2023-05-24T20:41:08.336Z,1.60
2023-05-24T20:43:35.173Z,1.77
2023-05-24T20:46:02.103Z,1.90
2023-05-24T20:48:28.878Z,2.08
2023-05-24T20:50:55.530Z,2.35
2023-05-24T20:53:22.256Z,1.60
2023-05-24T20:55:49.112Z,1.73
2023-05-24T20:58:17.564Z,1.75
2023-05-24T21:00:44.347Z,1.88
2023-05-24T21:03:11.354Z,2.30
2023-05-24T21:05:40.302Z,1.85
2023-05-24T21:08:07.293Z,1.90
2023-05-24T21:10:34.093Z,2.03
2023-05-24T21:13:00.781Z,2.10
2023-05-24T21:15:27.474Z,1.48
2023-05-24T21:17:54.211Z,1.85
2023-05-24T21:20:21.553Z,2.17
2023-05-24T21:22:48.783Z,1.85
2023-05-24T21:25:15.605Z,1.73
2023-05-24T21:27:42.284Z,2.08
2023-05-24T21:30:09.317Z,1.63
2023-05-24T21:32:36.081Z,1.73
2023-05-24T21:35:02.772Z,1.90
2023-05-24T21:37:29.522Z,1.80
2023-05-24T21:39:56.320Z,1.90
2023-05-24T21:42:22.995Z,1.90
2023-05-24T21:44:49.630Z,2.17
2023-05-24T21:47:16.362Z,1.60
2023-05-24T21:49:43.072Z,2.03
2023-05-24T21:52:09.769Z,2.13
2023-05-24T21:54:36.426Z,2.20
2023-05-24T21:57:03.788Z,2.10
2023-05-24T21:59:30.502Z,1.98
2023-05-24T22:01:57.262Z,2.50
2023-05-24T22:04:23.981Z,2.28
2023-05-24T22:06:50.841Z,2.03
2023-05-24T22:09:17.617Z,1.90
2023-05-24T22:11:44.303Z,2.53
2023-05-24T22:14:11.045Z,2.10
2023-05-24T22:16:38.029Z,2.30
2023-05-24T22:19:11.608Z,2.20
2023-05-24T22:21:41.759Z,2.40
2023-05-24T22:24:12.571Z,2.20
2023-05-24T22:26:41.696Z,2.50
2023-05-24T22:29:08.525Z,2.80
2023-05-24T22:31:36.215Z,2.28
2023-05-24T22:34:03.168Z,2.03
2023-05-24T22:36:34.507Z,1.70
2023-05-24T22:39:01.724Z,2.00
2023-05-24T22:41:28.814Z,3.13
2023-05-24T22:43:57.139Z,2.85
2023-05-24T22:46:24.695Z,3.75
2023-05-24T22:48:56.758Z,2.33
2023-05-24T22:51:24.002Z,2.13
2023-05-24T22:53:52.689Z,1.98
2023-05-24T22:56:19.730Z,1.90
2023-05-24T22:58:46.438Z,2.30
2023-05-24T23:01:15.649Z,2.05
2023-05-24T23:03:42.504Z,2.28
2023-05-24T23:06:12.150Z,2.15
2023-05-24T23:08:39.151Z,2.33
2023-05-24T23:11:10.418Z,2.25
2023-05-24T23:13:37.819Z,2.30
2023-05-24T23:16:05.591Z,2.03
2023-05-24T23:18:33.079Z,2.10
2023-05-24T23:21:03.183Z,2.35
2023-05-24T23:23:30.256Z,1.80
2023-05-24T23:25:57.167Z,2.38
2023-05-24T23:28:24.433Z,2.30
2023-05-24T23:30:51.860Z,2.58
2023-05-24T23:33:18.561Z,2.17
2023-05-24T23:35:45.501Z,2.78
2023-05-24T23:38:13.751Z,2.40
2023-05-24T23:40:40.705Z,1.98
2023-05-24T23:43:08.050Z,2.25
2023-05-24T23:45:35.148Z,2.13
2023-05-24T23:48:02.224Z,2.42
2023-05-24T23:50:30.302Z,2.58
2023-05-24T23:52:59.725Z,2.47
2023-05-24T23:55:26.486Z,2.70
2023-05-24T23:57:53.878Z,2.28
